sensor_id;sensor_type;location;lat;lon;timestamp;P1;durP1;ratioP1;P2;durP2;ratioP2
49223;SDS011;35050;51.316;5.994;2023-03-12T00:01:59;2.33;;;1.00;;
49223;SDS011;35050;51.316;5.994;2023-03-12T00:04:25;2.33;;;0.90;;
49223;SDS011;35050;51.316;5.994;2023-03-12T00:06:51;2.67;;;1.05;;
49223;SDS011;35050;51.316;5.994;2023-03-12T00:09:17;2.95;;;1.27;;
49223;SDS011;35050;51.316;5.994;2023-03-12T00:11:42;2.53;;;1.20;;
49223;SDS011;35050;51.316;5.994;2023-03-12T00:14:08;2.45;;;1.35;;
49223;SDS011;35050;51.316;5.994;2023-03-12T00:16:33;2.80;;;1.17;;
49223;SDS011;35050;51.316;5.994;2023-03-12T00:18:59;2.78;;;1.10;;
49223;SDS011;35050;51.316;5.994;2023-03-12T00:21:25;1.67;;;0.95;;
49223;SDS011;35050;51.316;5.994;2023-03-12T00:23:51;1.77;;;0.80;;
49223;SDS011;35050;51.316;5.994;2023-03-12T00:26:17;2.13;;;1.40;;
49223;SDS011;35050;51.316;5.994;2023-03-12T00:28:43;2.85;;;0.98;;
49223;SDS011;35050;51.316;5.994;2023-03-12T00:31:28;2.25;;;0.80;;
49223;SDS011;35050;51.316;5.994;2023-03-12T00:33:59;1.77;;;0.85;;
49223;SDS011;35050;51.316;5.994;2023-03-12T00:36:27;1.23;;;0.80;;
49223;SDS011;35050;51.316;5.994;2023-03-12T00:38:54;1.15;;;1.05;;
49223;SDS011;35050;51.316;5.994;2023-03-12T00:41:21;1.27;;;0.80;;
49223;SDS011;35050;51.316;5.994;2023-03-12T00:43:48;2.38;;;0.82;;
49223;SDS011;35050;51.316;5.994;2023-03-12T00:46:16;1.10;;;0.90;;
49223;SDS011;35050;51.316;5.994;2023-03-12T00:48:42;3.97;;;0.88;;
49223;SDS011;35050;51.316;5.994;2023-03-12T00:51:09;3.63;;;1.30;;
49223;SDS011;35050;51.316;5.994;2023-03-12T00:53:35;1.88;;;0.90;;
49223;SDS011;35050;51.316;5.994;2023-03-12T00:56:01;3.03;;;1.13;;
49223;SDS011;35050;51.316;5.994;2023-03-12T00:58:27;6.03;;;1.85;;
49223;SDS011;35050;51.316;5.994;2023-03-12T01:00:53;1.45;;;1.00;;
49223;SDS011;35050;51.316;5.994;2023-03-12T01:03:18;4.28;;;1.02;;
49223;SDS011;35050;51.316;5.994;2023-03-12T01:05:44;2.00;;;1.20;;
49223;SDS011;35050;51.316;5.994;2023-03-12T01:08:10;2.20;;;0.95;;
49223;SDS011;35050;51.316;5.994;2023-03-12T01:10:36;1.80;;;1.00;;
49223;SDS011;35050;51.316;5.994;2023-03-12T01:13:06;3.50;;;1.33;;
49223;SDS011;35050;51.316;5.994;2023-03-12T01:15:32;2.90;;;1.00;;
49223;SDS011;35050;51.316;5.994;2023-03-12T01:17:57;2.47;;;1.17;;
49223;SDS011;35050;51.316;5.994;2023-03-12T01:20:23;6.43;;;2.15;;
49223;SDS011;35050;51.316;5.994;2023-03-12T01:22:49;4.63;;;1.20;;
49223;SDS011;35050;51.316;5.994;2023-03-12T01:25:15;2.17;;;1.10;;
49223;SDS011;35050;51.316;5.994;2023-03-12T01:27:41;2.58;;;1.13;;
49223;SDS011;35050;51.316;5.994;2023-03-12T01:30:07;2.53;;;1.20;;
49223;SDS011;35050;51.316;5.994;2023-03-12T01:32:34;4.03;;;1.40;;
49223;SDS011;35050;51.316;5.994;2023-03-12T01:34:59;2.97;;;1.27;;
49223;SDS011;35050;51.316;5.994;2023-03-12T01:37:25;1.58;;;1.00;;
49223;SDS011;35050;51.316;5.994;2023-03-12T01:39:51;1.95;;;1.25;;
49223;SDS011;35050;51.316;5.994;2023-03-12T01:42:17;5.07;;;1.42;;
49223;SDS011;35050;51.316;5.994;2023-03-12T01:44:54;4.88;;;1.88;;
49223;SDS011;35050;51.316;5.994;2023-03-12T01:47:24;2.45;;;1.30;;
49223;SDS011;35050;51.316;5.994;2023-03-12T01:49:51;3.45;;;1.50;;
49223;SDS011;35050;51.316;5.994;2023-03-12T01:52:31;2.75;;;1.50;;
49223;SDS011;35050;51.316;5.994;2023-03-12T01:55:04;3.75;;;1.40;;
49223;SDS011;35050;51.316;5.994;2023-03-12T01:57:38;2.15;;;1.27;;
49223;SDS011;35050;51.316;5.994;2023-03-12T02:00:12;3.75;;;1.42;;
49223;SDS011;35050;51.316;5.994;2023-03-12T02:02:40;4.13;;;1.70;;
49223;SDS011;35050;51.316;5.994;2023-03-12T02:05:10;3.60;;;1.63;;
49223;SDS011;35050;51.316;5.994;2023-03-12T02:07:44;2.97;;;1.50;;
49223;SDS011;35050;51.316;5.994;2023-03-12T02:10:10;2.17;;;1.42;;
49223;SDS011;35050;51.316;5.994;2023-03-12T02:12:36;2.10;;;1.25;;
49223;SDS011;35050;51.316;5.994;2023-03-12T02:15:02;2.78;;;1.50;;
49223;SDS011;35050;51.316;5.994;2023-03-12T02:17:29;3.90;;;1.40;;
49223;SDS011;35050;51.316;5.994;2023-03-12T02:20:15;4.00;;;1.73;;
49223;SDS011;35050;51.316;5.994;2023-03-12T02:22:53;2.47;;;1.30;;
49223;SDS011;35050;51.316;5.994;2023-03-12T02:25:26;3.35;;;1.52;;
49223;SDS011;35050;51.316;5.994;2023-03-12T02:27:54;2.63;;;1.70;;
49223;SDS011;35050;51.316;5.994;2023-03-12T02:30:22;4.95;;;1.70;;
49223;SDS011;35050;51.316;5.994;2023-03-12T02:32:48;3.35;;;1.70;;
49223;SDS011;35050;51.316;5.994;2023-03-12T02:35:15;4.13;;;1.73;;
49223;SDS011;35050;51.316;5.994;2023-03-12T02:37:50;2.10;;;1.40;;
49223;SDS011;35050;51.316;5.994;2023-03-12T02:40:32;3.28;;;1.65;;
49223;SDS011;35050;51.316;5.994;2023-03-12T02:43:02;4.45;;;1.40;;
49223;SDS011;35050;51.316;5.994;2023-03-12T02:45:30;2.83;;;1.65;;
49223;SDS011;35050;51.316;5.994;2023-03-12T02:47:57;3.70;;;1.92;;
49223;SDS011;35050;51.316;5.994;2023-03-12T02:50:23;3.65;;;1.77;;
49223;SDS011;35050;51.316;5.994;2023-03-12T02:52:49;1.58;;;1.40;;
49223;SDS011;35050;51.316;5.994;2023-03-12T02:55:15;3.53;;;1.40;;
49223;SDS011;35050;51.316;5.994;2023-03-12T02:57:40;2.40;;;1.23;;
49223;SDS011;35050;51.316;5.994;2023-03-12T03:00:09;2.97;;;1.50;;
49223;SDS011;35050;51.316;5.994;2023-03-12T03:02:39;4.00;;;2.15;;
49223;SDS011;35050;51.316;5.994;2023-03-12T03:05:05;3.17;;;1.70;;
49223;SDS011;35050;51.316;5.994;2023-03-12T03:07:32;2.45;;;1.73;;
49223;SDS011;35050;51.316;5.994;2023-03-12T03:09:58;2.72;;;1.60;;
49223;SDS011;35050;51.316;5.994;2023-03-12T03:12:31;4.03;;;1.58;;
49223;SDS011;35050;51.316;5.994;2023-03-12T03:14:58;4.47;;;1.70;;
49223;SDS011;35050;51.316;5.994;2023-03-12T03:17:24;2.88;;;1.70;;
49223;SDS011;35050;51.316;5.994;2023-03-12T03:19:50;3.20;;;1.60;;
49223;SDS011;35050;51.316;5.994;2023-03-12T03:22:17;2.78;;;1.55;;
49223;SDS011;35050;51.316;5.994;2023-03-12T03:24:43;3.55;;;1.88;;
49223;SDS011;35050;51.316;5.994;2023-03-12T03:27:10;3.38;;;1.90;;
49223;SDS011;35050;51.316;5.994;2023-03-12T03:29:36;5.95;;;2.00;;
49223;SDS011;35050;51.316;5.994;2023-03-12T03:32:01;4.82;;;2.13;;
49223;SDS011;35050;51.316;5.994;2023-03-12T03:34:27;3.92;;;2.10;;
49223;SDS011;35050;51.316;5.994;2023-03-12T03:36:53;5.35;;;2.22;;
49223;SDS011;35050;51.316;5.994;2023-03-12T03:39:18;4.20;;;2.00;;
49223;SDS011;35050;51.316;5.994;2023-03-12T03:41:44;4.63;;;2.13;;
49223;SDS011;35050;51.316;5.994;2023-03-12T03:44:11;3.90;;;1.73;;
49223;SDS011;35050;51.316;5.994;2023-03-12T03:46:37;4.05;;;2.40;;
49223;SDS011;35050;51.316;5.994;2023-03-12T03:49:03;3.67;;;1.75;;
49223;SDS011;35050;51.316;5.994;2023-03-12T03:51:29;3.10;;;1.63;;
49223;SDS011;35050;51.316;5.994;2023-03-12T03:53:55;3.85;;;1.73;;
49223;SDS011;35050;51.316;5.994;2023-03-12T03:56:22;5.18;;;1.67;;
49223;SDS011;35050;51.316;5.994;2023-03-12T03:58:48;2.88;;;1.75;;
49223;SDS011;35050;51.316;5.994;2023-03-12T04:01:13;3.25;;;1.67;;
49223;SDS011;35050;51.316;5.994;2023-03-12T04:03:39;3.03;;;1.70;;
49223;SDS011;35050;51.316;5.994;2023-03-12T04:06:05;3.63;;;2.00;;
49223;SDS011;35050;51.316;5.994;2023-03-12T04:08:32;2.90;;;1.70;;
49223;SDS011;35050;51.316;5.994;2023-03-12T04:11:05;3.03;;;1.95;;
49223;SDS011;35050;51.316;5.994;2023-03-12T04:15:58;3.05;;;1.50;;
49223;SDS011;35050;51.316;5.994;2023-03-12T04:18:23;2.45;;;1.50;;
49223;SDS011;35050;51.316;5.994;2023-03-12T04:20:49;3.75;;;1.42;;
49223;SDS011;35050;51.316;5.994;2023-03-12T04:23:15;4.57;;;1.80;;
49223;SDS011;35050;51.316;5.994;2023-03-12T04:25:40;3.72;;;1.98;;
49223;SDS011;35050;51.316;5.994;2023-03-12T04:28:06;2.97;;;1.67;;
49223;SDS011;35050;51.316;5.994;2023-03-12T04:30:32;2.78;;;1.48;;
49223;SDS011;35050;51.316;5.994;2023-03-12T04:32:57;4.20;;;2.10;;
49223;SDS011;35050;51.316;5.994;2023-03-12T04:35:23;6.15;;;1.90;;
49223;SDS011;35050;51.316;5.994;2023-03-12T04:37:49;4.15;;;1.73;;
49223;SDS011;35050;51.316;5.994;2023-03-12T04:40:15;2.22;;;1.48;;
49223;SDS011;35050;51.316;5.994;2023-03-12T04:42:43;4.68;;;2.08;;
49223;SDS011;35050;51.316;5.994;2023-03-12T04:45:09;2.92;;;1.67;;
49223;SDS011;35050;51.316;5.994;2023-03-12T04:47:35;5.70;;;2.40;;
49223;SDS011;35050;51.316;5.994;2023-03-12T04:50:01;5.43;;;2.20;;
49223;SDS011;35050;51.316;5.994;2023-03-12T04:52:27;3.60;;;1.75;;
49223;SDS011;35050;51.316;5.994;2023-03-12T04:54:53;4.28;;;2.05;;
49223;SDS011;35050;51.316;5.994;2023-03-12T04:57:19;3.88;;;2.08;;
49223;SDS011;35050;51.316;5.994;2023-03-12T04:59:45;4.15;;;1.70;;
49223;SDS011;35050;51.316;5.994;2023-03-12T05:02:10;3.40;;;2.15;;
49223;SDS011;35050;51.316;5.994;2023-03-12T05:04:36;5.13;;;1.90;;
49223;SDS011;35050;51.316;5.994;2023-03-12T05:07:02;5.30;;;2.10;;
49223;SDS011;35050;51.316;5.994;2023-03-12T05:09:27;3.92;;;1.80;;
49223;SDS011;35050;51.316;5.994;2023-03-12T05:11:53;4.43;;;2.00;;
49223;SDS011;35050;51.316;5.994;2023-03-12T05:14:19;4.85;;;2.35;;
49223;SDS011;35050;51.316;5.994;2023-03-12T05:16:45;6.22;;;3.03;;
49223;SDS011;35050;51.316;5.994;2023-03-12T05:19:10;6.28;;;2.65;;
49223;SDS011;35050;51.316;5.994;2023-03-12T05:21:37;4.60;;;2.28;;
49223;SDS011;35050;51.316;5.994;2023-03-12T05:24:04;6.22;;;2.47;;
49223;SDS011;35050;51.316;5.994;2023-03-12T05:26:31;8.23;;;3.17;;
49223;SDS011;35050;51.316;5.994;2023-03-12T05:28:57;5.55;;;2.22;;
49223;SDS011;35050;51.316;5.994;2023-03-12T05:31:27;5.97;;;2.55;;
49223;SDS011;35050;51.316;5.994;2023-03-12T05:33:57;9.10;;;2.65;;
49223;SDS011;35050;51.316;5.994;2023-03-12T05:36:23;4.97;;;2.50;;
49223;SDS011;35050;51.316;5.994;2023-03-12T05:38:49;4.63;;;2.55;;
49223;SDS011;35050;51.316;5.994;2023-03-12T05:41:33;4.68;;;2.60;;
49223;SDS011;35050;51.316;5.994;2023-03-12T05:43:59;3.53;;;1.90;;
49223;SDS011;35050;51.316;5.994;2023-03-12T05:46:25;5.57;;;2.60;;
49223;SDS011;35050;51.316;5.994;2023-03-12T05:48:51;5.22;;;2.25;;
49223;SDS011;35050;51.316;5.994;2023-03-12T05:51:17;3.08;;;2.05;;
49223;SDS011;35050;51.316;5.994;2023-03-12T05:53:43;9.55;;;2.30;;
49223;SDS011;35050;51.316;5.994;2023-03-12T05:56:12;5.28;;;2.60;;
49223;SDS011;35050;51.316;5.994;2023-03-12T05:58:39;10.45;;;2.58;;
49223;SDS011;35050;51.316;5.994;2023-03-12T06:01:12;6.38;;;2.45;;
49223;SDS011;35050;51.316;5.994;2023-03-12T06:03:39;6.82;;;2.45;;
49223;SDS011;35050;51.316;5.994;2023-03-12T06:06:07;3.97;;;2.50;;
49223;SDS011;35050;51.316;5.994;2023-03-12T06:08:33;6.05;;;2.60;;
49223;SDS011;35050;51.316;5.994;2023-03-12T06:10:59;7.47;;;2.30;;
49223;SDS011;35050;51.316;5.994;2023-03-12T06:13:24;6.20;;;2.40;;
49223;SDS011;35050;51.316;5.994;2023-03-12T06:15:52;5.68;;;2.45;;
49223;SDS011;35050;51.316;5.994;2023-03-12T06:18:18;6.05;;;2.70;;
49223;SDS011;35050;51.316;5.994;2023-03-12T06:20:43;6.90;;;2.53;;
49223;SDS011;35050;51.316;5.994;2023-03-12T06:23:09;6.68;;;2.70;;
49223;SDS011;35050;51.316;5.994;2023-03-12T06:25:35;6.18;;;2.40;;
49223;SDS011;35050;51.316;5.994;2023-03-12T06:28:00;4.85;;;2.60;;
49223;SDS011;35050;51.316;5.994;2023-03-12T06:30:26;5.75;;;2.65;;
49223;SDS011;35050;51.316;5.994;2023-03-12T06:32:52;5.97;;;1.90;;
49223;SDS011;35050;51.316;5.994;2023-03-12T06:35:18;2.35;;;1.85;;
49223;SDS011;35050;51.316;5.994;2023-03-12T06:37:44;3.25;;;1.95;;
49223;SDS011;35050;51.316;5.994;2023-03-12T06:40:09;3.42;;;1.75;;
49223;SDS011;35050;51.316;5.994;2023-03-12T06:42:36;5.75;;;2.30;;
49223;SDS011;35050;51.316;5.994;2023-03-12T06:45:03;3.58;;;1.98;;
49223;SDS011;35050;51.316;5.994;2023-03-12T06:47:29;3.00;;;1.90;;
49223;SDS011;35050;51.316;5.994;2023-03-12T06:49:55;3.10;;;1.80;;
49223;SDS011;35050;51.316;5.994;2023-03-12T06:52:21;10.55;;;2.28;;
49223;SDS011;35050;51.316;5.994;2023-03-12T06:54:46;2.90;;;1.98;;
49223;SDS011;35050;51.316;5.994;2023-03-12T06:57:12;3.90;;;2.38;;
49223;SDS011;35050;51.316;5.994;2023-03-12T06:59:40;5.95;;;3.08;;
49223;SDS011;35050;51.316;5.994;2023-03-12T07:02:08;6.53;;;2.47;;
49223;SDS011;35050;51.316;5.994;2023-03-12T07:04:35;5.88;;;2.50;;
49223;SDS011;35050;51.316;5.994;2023-03-12T07:07:00;3.70;;;2.20;;
49223;SDS011;35050;51.316;5.994;2023-03-12T07:09:26;6.72;;;2.15;;
49223;SDS011;35050;51.316;5.994;2023-03-12T07:11:52;6.88;;;2.20;;
49223;SDS011;35050;51.316;5.994;2023-03-12T07:14:18;6.35;;;2.88;;
49223;SDS011;35050;51.316;5.994;2023-03-12T07:16:45;6.80;;;2.83;;
49223;SDS011;35050;51.316;5.994;2023-03-12T07:19:11;5.50;;;2.00;;
49223;SDS011;35050;51.316;5.994;2023-03-12T07:21:37;4.75;;;2.50;;
49223;SDS011;35050;51.316;5.994;2023-03-12T07:24:02;5.30;;;2.40;;
49223;SDS011;35050;51.316;5.994;2023-03-12T07:26:31;5.13;;;2.70;;
49223;SDS011;35050;51.316;5.994;2023-03-12T07:28:58;6.28;;;2.85;;
49223;SDS011;35050;51.316;5.994;2023-03-12T07:31:23;6.25;;;2.70;;
49223;SDS011;35050;51.316;5.994;2023-03-12T07:33:49;4.22;;;2.50;;
49223;SDS011;35050;51.316;5.994;2023-03-12T07:36:14;7.25;;;2.88;;
49223;SDS011;35050;51.316;5.994;2023-03-12T07:38:40;6.22;;;2.65;;
49223;SDS011;35050;51.316;5.994;2023-03-12T07:41:06;6.70;;;2.70;;
49223;SDS011;35050;51.316;5.994;2023-03-12T07:43:32;4.35;;;2.63;;
49223;SDS011;35050;51.316;5.994;2023-03-12T07:45:57;9.68;;;3.13;;
49223;SDS011;35050;51.316;5.994;2023-03-12T07:48:23;7.28;;;2.90;;
49223;SDS011;35050;51.316;5.994;2023-03-12T07:50:49;4.13;;;2.55;;
49223;SDS011;35050;51.316;5.994;2023-03-12T07:53:14;4.60;;;2.58;;
49223;SDS011;35050;51.316;5.994;2023-03-12T07:55:42;4.78;;;2.60;;
49223;SDS011;35050;51.316;5.994;2023-03-12T07:58:09;7.07;;;3.10;;
49223;SDS011;35050;51.316;5.994;2023-03-12T08:00:36;6.57;;;3.45;;
49223;SDS011;35050;51.316;5.994;2023-03-12T08:03:03;6.45;;;2.88;;
49223;SDS011;35050;51.316;5.994;2023-03-12T08:05:28;5.90;;;2.80;;
49223;SDS011;35050;51.316;5.994;2023-03-12T08:07:54;5.22;;;2.65;;
49223;SDS011;35050;51.316;5.994;2023-03-12T08:10:22;4.63;;;2.67;;
49223;SDS011;35050;51.316;5.994;2023-03-12T08:12:48;5.18;;;2.92;;
49223;SDS011;35050;51.316;5.994;2023-03-12T08:15:14;5.80;;;2.97;;
49223;SDS011;35050;51.316;5.994;2023-03-12T08:17:40;4.28;;;3.10;;
49223;SDS011;35050;51.316;5.994;2023-03-12T08:20:06;5.93;;;2.80;;
49223;SDS011;35050;51.316;5.994;2023-03-12T08:22:34;4.38;;;2.70;;
49223;SDS011;35050;51.316;5.994;2023-03-12T08:25:01;4.40;;;2.90;;
49223;SDS011;35050;51.316;5.994;2023-03-12T08:27:26;7.15;;;3.55;;
49223;SDS011;35050;51.316;5.994;2023-03-12T08:29:52;6.72;;;3.60;;
49223;SDS011;35050;51.316;5.994;2023-03-12T08:32:18;5.10;;;3.40;;
49223;SDS011;35050;51.316;5.994;2023-03-12T08:34:43;5.30;;;3.35;;
49223;SDS011;35050;51.316;5.994;2023-03-12T08:37:09;6.05;;;3.70;;
49223;SDS011;35050;51.316;5.994;2023-03-12T08:39:35;5.22;;;3.20;;
49223;SDS011;35050;51.316;5.994;2023-03-12T08:42:00;7.43;;;4.03;;
49223;SDS011;35050;51.316;5.994;2023-03-12T08:44:27;5.82;;;3.60;;
49223;SDS011;35050;51.316;5.994;2023-03-12T08:46:52;4.97;;;3.30;;
49223;SDS011;35050;51.316;5.994;2023-03-12T08:49:18;4.82;;;3.30;;
49223;SDS011;35050;51.316;5.994;2023-03-12T08:51:45;5.00;;;3.78;;
49223;SDS011;35050;51.316;5.994;2023-03-12T08:54:11;5.75;;;3.97;;
49223;SDS011;35050;51.316;5.994;2023-03-12T08:56:37;5.80;;;3.50;;
49223;SDS011;35050;51.316;5.994;2023-03-12T08:59:06;6.90;;;4.32;;
49223;SDS011;35050;51.316;5.994;2023-03-12T09:01:33;4.15;;;3.25;;
49223;SDS011;35050;51.316;5.994;2023-03-12T09:03:58;5.82;;;3.25;;
49223;SDS011;35050;51.316;5.994;2023-03-12T09:06:26;3.95;;;2.78;;
49223;SDS011;35050;51.316;5.994;2023-03-12T09:08:52;4.25;;;3.50;;
49223;SDS011;35050;51.316;5.994;2023-03-12T09:11:17;4.75;;;3.65;;
49223;SDS011;35050;51.316;5.994;2023-03-12T09:13:43;4.93;;;3.20;;
49223;SDS011;35050;51.316;5.994;2023-03-12T09:16:09;3.70;;;3.22;;
49223;SDS011;35050;51.316;5.994;2023-03-12T09:18:35;3.42;;;2.95;;
49223;SDS011;35050;51.316;5.994;2023-03-12T09:21:01;2.92;;;2.33;;
49223;SDS011;35050;51.316;5.994;2023-03-12T09:23:27;3.13;;;2.80;;
49223;SDS011;35050;51.316;5.994;2023-03-12T09:25:53;3.08;;;2.50;;
49223;SDS011;35050;51.316;5.994;2023-03-12T09:28:19;3.13;;;2.05;;
49223;SDS011;35050;51.316;5.994;2023-03-12T09:30:45;3.63;;;2.00;;
49223;SDS011;35050;51.316;5.994;2023-03-12T09:33:11;2.65;;;2.10;;
49223;SDS011;35050;51.316;5.994;2023-03-12T09:35:39;3.40;;;2.35;;
49223;SDS011;35050;51.316;5.994;2023-03-12T09:38:05;3.60;;;3.15;;
49223;SDS011;35050;51.316;5.994;2023-03-12T09:40:31;4.57;;;3.08;;
49223;SDS011;35050;51.316;5.994;2023-03-12T09:43:02;4.55;;;3.03;;
49223;SDS011;35050;51.316;5.994;2023-03-12T09:45:34;8.25;;;4.38;;
49223;SDS011;35050;51.316;5.994;2023-03-12T09:48:04;5.30;;;3.70;;
49223;SDS011;35050;51.316;5.994;2023-03-12T09:55:49;8.02;;;4.05;;
49223;SDS011;35050;51.316;5.994;2023-03-12T09:58:36;3.88;;;3.30;;
49223;SDS011;35050;51.316;5.994;2023-03-12T10:01:23;5.57;;;4.32;;
49223;SDS011;35050;51.316;5.994;2023-03-12T10:15:47;6.00;;;4.60;;
49223;SDS011;35050;51.316;5.994;2023-03-12T10:21:24;5.78;;;4.40;;
49223;SDS011;35050;51.316;5.994;2023-03-12T10:27:08;5.65;;;4.85;;
49223;SDS011;35050;51.316;5.994;2023-03-12T10:29:38;7.60;;;5.60;;
49223;SDS011;35050;51.316;5.994;2023-03-12T10:32:11;9.68;;;6.13;;
49223;SDS011;35050;51.316;5.994;2023-03-12T10:34:49;12.15;;;6.72;;
49223;SDS011;35050;51.316;5.994;2023-03-12T10:37:38;7.65;;;6.85;;
49223;SDS011;35050;51.316;5.994;2023-03-12T10:40:34;8.00;;;6.10;;
49223;SDS011;35050;51.316;5.994;2023-03-12T10:43:01;8.50;;;6.75;;
49223;SDS011;35050;51.316;5.994;2023-03-12T10:45:37;7.10;;;5.85;;
49223;SDS011;35050;51.316;5.994;2023-03-12T10:48:33;8.48;;;5.90;;
49223;SDS011;35050;51.316;5.994;2023-03-12T10:51:03;10.07;;;7.43;;
49223;SDS011;35050;51.316;5.994;2023-03-12T10:53:34;11.93;;;8.20;;
49223;SDS011;35050;51.316;5.994;2023-03-12T10:56:03;14.63;;;8.27;;
49223;SDS011;35050;51.316;5.994;2023-03-12T10:58:33;11.13;;;8.27;;
49223;SDS011;35050;51.316;5.994;2023-03-12T11:01:01;11.23;;;7.95;;
49223;SDS011;35050;51.316;5.994;2023-03-12T11:03:28;19.90;;;9.02;;
49223;SDS011;35050;51.316;5.994;2023-03-12T11:05:55;14.65;;;9.02;;
49223;SDS011;35050;51.316;5.994;2023-03-12T11:08:25;15.65;;;8.88;;
49223;SDS011;35050;51.316;5.994;2023-03-12T11:10:53;12.02;;;8.40;;
49223;SDS011;35050;51.316;5.994;2023-03-12T11:15:51;15.25;;;8.77;;
49223;SDS011;35050;51.316;5.994;2023-03-12T11:18:34;15.07;;;8.77;;
49223;SDS011;35050;51.316;5.994;2023-03-12T11:23:39;14.93;;;8.32;;
49223;SDS011;35050;51.316;5.994;2023-03-12T11:26:22;14.50;;;7.45;;
49223;SDS011;35050;51.316;5.994;2023-03-12T11:28:51;14.27;;;8.80;;
49223;SDS011;35050;51.316;5.994;2023-03-12T11:31:22;18.60;;;9.73;;
49223;SDS011;35050;51.316;5.994;2023-03-12T11:33:56;17.63;;;8.93;;
49223;SDS011;35050;51.316;5.994;2023-03-12T11:36:50;16.33;;;8.90;;
49223;SDS011;35050;51.316;5.994;2023-03-12T11:39:36;24.08;;;10.45;;
49223;SDS011;35050;51.316;5.994;2023-03-12T11:42:05;18.85;;;9.90;;
49223;SDS011;35050;51.316;5.994;2023-03-12T11:44:36;23.58;;;9.98;;
49223;SDS011;35050;51.316;5.994;2023-03-12T11:47:16;24.80;;;10.25;;
49223;SDS011;35050;51.316;5.994;2023-03-12T11:50:02;16.73;;;8.80;;
49223;SDS011;35050;51.316;5.994;2023-03-12T11:52:43;16.38;;;7.25;;
49223;SDS011;35050;51.316;5.994;2023-03-12T11:55:28;17.42;;;7.70;;
49223;SDS011;35050;51.316;5.994;2023-03-12T11:58:01;15.70;;;7.22;;
49223;SDS011;35050;51.316;5.994;2023-03-12T12:06:01;19.60;;;7.88;;
49223;SDS011;35050;51.316;5.994;2023-03-12T12:08:44;22.35;;;8.57;;
49223;SDS011;35050;51.316;5.994;2023-03-12T12:11:33;18.35;;;7.68;;
49223;SDS011;35050;51.316;5.994;2023-03-12T12:14:09;22.80;;;7.17;;
49223;SDS011;35050;51.316;5.994;2023-03-12T12:33:54;23.15;;;7.25;;
49223;SDS011;35050;51.316;5.994;2023-03-12T12:36:33;22.08;;;6.22;;
49223;SDS011;35050;51.316;5.994;2023-03-12T12:39:07;19.00;;;5.68;;
49223;SDS011;35050;51.316;5.994;2023-03-12T12:41:49;18.92;;;6.10;;
49223;SDS011;35050;51.316;5.994;2023-03-12T12:44:19;23.80;;;6.20;;
49223;SDS011;35050;51.316;5.994;2023-03-12T12:46:49;24.05;;;6.15;;
49223;SDS011;35050;51.316;5.994;2023-03-12T12:49:40;19.20;;;6.10;;
49223;SDS011;35050;51.316;5.994;2023-03-12T12:52:11;15.95;;;5.38;;
49223;SDS011;35050;51.316;5.994;2023-03-12T12:54:44;17.17;;;5.20;;
49223;SDS011;35050;51.316;5.994;2023-03-12T12:57:37;26.42;;;6.20;;
49223;SDS011;35050;51.316;5.994;2023-03-12T13:02:54;17.30;;;5.32;;
49223;SDS011;35050;51.316;5.994;2023-03-12T13:07:46;19.40;;;5.00;;
49223;SDS011;35050;51.316;5.994;2023-03-12T13:12:56;17.98;;;4.28;;
49223;SDS011;35050;51.316;5.994;2023-03-12T13:20:24;14.73;;;4.32;;
49223;SDS011;35050;51.316;5.994;2023-03-12T13:28:01;15.15;;;4.68;;
49223;SDS011;35050;51.316;5.994;2023-03-12T13:30:51;16.50;;;4.07;;
49223;SDS011;35050;51.316;5.994;2023-03-12T13:33:18;18.98;;;4.50;;
49223;SDS011;35050;51.316;5.994;2023-03-12T13:36:08;17.85;;;4.82;;
49223;SDS011;35050;51.316;5.994;2023-03-12T13:41:37;21.95;;;4.63;;
49223;SDS011;35050;51.316;5.994;2023-03-12T13:44:38;15.73;;;3.75;;
49223;SDS011;35050;51.316;5.994;2023-03-12T13:52:25;17.20;;;4.45;;
49223;SDS011;35050;51.316;5.994;2023-03-12T13:54:59;22.88;;;5.35;;
49223;SDS011;35050;51.316;5.994;2023-03-12T14:03:15;21.88;;;4.80;;
49223;SDS011;35050;51.316;5.994;2023-03-12T14:16:48;29.40;;;6.65;;
49223;SDS011;35050;51.316;5.994;2023-03-12T14:19:24;20.92;;;4.72;;
49223;SDS011;35050;51.316;5.994;2023-03-12T14:21:51;18.02;;;5.03;;
49223;SDS011;35050;51.316;5.994;2023-03-12T14:24:27;19.95;;;5.28;;
49223;SDS011;35050;51.316;5.994;2023-03-12T14:27:03;21.98;;;5.50;;
49223;SDS011;35050;51.316;5.994;2023-03-12T14:29:34;18.88;;;4.32;;
49223;SDS011;35050;51.316;5.994;2023-03-12T14:32:03;19.83;;;5.00;;
49223;SDS011;35050;51.316;5.994;2023-03-12T14:37:45;18.05;;;4.53;;
49223;SDS011;35050;51.316;5.994;2023-03-12T14:42:52;23.50;;;5.63;;
49223;SDS011;35050;51.316;5.994;2023-03-12T14:45:20;21.98;;;4.53;;
49223;SDS011;35050;51.316;5.994;2023-03-12T14:47:47;20.70;;;4.55;;
49223;SDS011;35050;51.316;5.994;2023-03-12T14:50:23;19.17;;;4.63;;
49223;SDS011;35050;51.316;5.994;2023-03-12T14:55:58;21.77;;;5.28;;
49223;SDS011;35050;51.316;5.994;2023-03-12T14:58:50;15.98;;;4.45;;
49223;SDS011;35050;51.316;5.994;2023-03-12T15:01:26;14.80;;;4.60;;
49223;SDS011;35050;51.316;5.994;2023-03-12T15:04:00;17.45;;;4.40;;
49223;SDS011;35050;51.316;5.994;2023-03-12T15:08:54;18.30;;;4.82;;
49223;SDS011;35050;51.316;5.994;2023-03-12T15:11:21;17.65;;;4.90;;
49223;SDS011;35050;51.316;5.994;2023-03-12T15:13:49;16.73;;;4.80;;
49223;SDS011;35050;51.316;5.994;2023-03-12T15:16:16;16.35;;;4.15;;
49223;SDS011;35050;51.316;5.994;2023-03-12T15:18:43;19.90;;;4.68;;
49223;SDS011;35050;51.316;5.994;2023-03-12T15:21:11;16.33;;;4.45;;
49223;SDS011;35050;51.316;5.994;2023-03-12T15:23:37;21.13;;;5.70;;
49223;SDS011;35050;51.316;5.994;2023-03-12T15:31:51;19.10;;;5.32;;
49223;SDS011;35050;51.316;5.994;2023-03-12T15:34:28;21.20;;;5.03;;
49223;SDS011;35050;51.316;5.994;2023-03-12T15:36:56;20.00;;;5.20;;
49223;SDS011;35050;51.316;5.994;2023-03-12T15:39:24;20.25;;;5.07;;
49223;SDS011;35050;51.316;5.994;2023-03-12T15:41:53;20.92;;;4.72;;
49223;SDS011;35050;51.316;5.994;2023-03-12T15:44:21;17.52;;;5.35;;
49223;SDS011;35050;51.316;5.994;2023-03-12T15:46:53;20.33;;;4.53;;
49223;SDS011;35050;51.316;5.994;2023-03-12T15:49:23;20.20;;;4.68;;
49223;SDS011;35050;51.316;5.994;2023-03-12T15:52:03;25.55;;;5.07;;
49223;SDS011;35050;51.316;5.994;2023-03-12T15:54:59;25.73;;;6.05;;
49223;SDS011;35050;51.316;5.994;2023-03-12T15:57:36;19.80;;;5.50;;
49223;SDS011;35050;51.316;5.994;2023-03-12T16:00:22;17.33;;;4.82;;
49223;SDS011;35050;51.316;5.994;2023-03-12T16:02:59;19.40;;;3.90;;
49223;SDS011;35050;51.316;5.994;2023-03-12T16:05:31;14.52;;;4.00;;
49223;SDS011;35050;51.316;5.994;2023-03-12T16:08:13;20.83;;;4.75;;
49223;SDS011;35050;51.316;5.994;2023-03-12T16:10:45;19.02;;;4.30;;
49223;SDS011;35050;51.316;5.994;2023-03-12T16:13:16;18.20;;;4.32;;
49223;SDS011;35050;51.316;5.994;2023-03-12T16:15:44;17.13;;;4.68;;
49223;SDS011;35050;51.316;5.994;2023-03-12T16:18:19;17.63;;;4.18;;
49223;SDS011;35050;51.316;5.994;2023-03-12T16:20:46;12.35;;;3.58;;
49223;SDS011;35050;51.316;5.994;2023-03-12T16:23:13;13.02;;;4.22;;
49223;SDS011;35050;51.316;5.994;2023-03-12T16:25:43;13.82;;;3.95;;
49223;SDS011;35050;51.316;5.994;2023-03-12T16:28:11;17.42;;;4.40;;
49223;SDS011;35050;51.316;5.994;2023-03-12T16:30:39;17.92;;;4.45;;
49223;SDS011;35050;51.316;5.994;2023-03-12T16:33:05;15.52;;;4.47;;
49223;SDS011;35050;51.316;5.994;2023-03-12T16:35:31;16.60;;;4.22;;
49223;SDS011;35050;51.316;5.994;2023-03-12T16:37:57;13.25;;;4.13;;
49223;SDS011;35050;51.316;5.994;2023-03-12T16:40:30;17.98;;;4.40;;
49223;SDS011;35050;51.316;5.994;2023-03-12T16:42:58;14.70;;;4.05;;
49223;SDS011;35050;51.316;5.994;2023-03-12T16:45:27;14.07;;;4.03;;
49223;SDS011;35050;51.316;5.994;2023-03-12T16:47:57;11.95;;;3.20;;
49223;SDS011;35050;51.316;5.994;2023-03-12T16:50:24;11.65;;;3.53;;